sensor_id;sensor_type;location;lat;lon;timestamp;pressure;altitude;pressure_sealevel;temperature;humidity
41947;BME280;27638;42.184;24.848;2023-03-19T00:01:25;100496.31;;;5.90;56.98
41947;BME280;27638;42.184;24.848;2023-03-19T00:03:51;100496.97;;;6.05;56.29
41947;BME280;27638;42.184;24.848;2023-03-19T00:06:16;100497.38;;;6.23;55.39
41947;BME280;27638;42.184;24.848;2023-03-19T00:08:41;100500.03;;;5.99;56.07
41947;BME280;27638;42.184;24.848;2023-03-19T00:11:09;100498.44;;;6.20;55.90
41947;BME280;27638;42.184;24.848;2023-03-19T00:13:35;100490.47;;;5.98;56.65
41947;BME280;27638;42.184;24.848;2023-03-19T00:16:00;100486.00;;;5.87;57.44
41947;BME280;27638;42.184;24.848;2023-03-19T00:18:26;100481.69;;;6.10;56.60
41947;BME280;27638;42.184;24.848;2023-03-19T00:20:51;100477.28;;;6.22;55.77
41947;BME280;27638;42.184;24.848;2023-03-19T00:23:17;100474.94;;;5.95;56.35
41947;BME280;27638;42.184;24.848;2023-03-19T00:25:42;100466.44;;;5.91;56.32
41947;BME280;27638;42.184;24.848;2023-03-19T00:28:08;100465.91;;;5.86;56.12
41947;BME280;27638;42.184;24.848;2023-03-19T00:30:34;100466.66;;;5.88;57.07
41947;BME280;27638;42.184;24.848;2023-03-19T00:32:59;100457.91;;;6.12;55.99
41947;BME280;27638;42.184;24.848;2023-03-19T00:35:25;100454.09;;;6.16;55.92
41947;BME280;27638;42.184;24.848;2023-03-19T00:37:51;100457.66;;;6.15;55.66
41947;BME280;27638;42.184;24.848;2023-03-19T00:40:17;100463.28;;;6.21;55.61
41947;BME280;27638;42.184;24.848;2023-03-19T00:42:42;100454.72;;;6.30;55.32
41947;BME280;27638;42.184;24.848;2023-03-19T00:45:09;100456.25;;;6.22;54.63
41947;BME280;27638;42.184;24.848;2023-03-19T00:47:35;100452.88;;;6.08;55.47
41947;BME280;27638;42.184;24.848;2023-03-19T00:50:02;100457.75;;;6.02;55.86
41947;BME280;27638;42.184;24.848;2023-03-19T00:52:28;100458.09;;;5.97;55.99
41947;BME280;27638;42.184;24.848;2023-03-19T00:54:54;100461.19;;;5.91;56.37
41947;BME280;27638;42.184;24.848;2023-03-19T00:57:19;100455.97;;;6.02;56.43
41947;BME280;27638;42.184;24.848;2023-03-19T00:59:45;100463.47;;;5.96;56.54
41947;BME280;27638;42.184;24.848;2023-03-19T01:02:11;100440.69;;;5.84;56.60
41947;BME280;27638;42.184;24.848;2023-03-19T01:04:36;100449.59;;;5.94;56.07
41947;BME280;27638;42.184;24.848;2023-03-19T01:07:02;100458.72;;;6.01;56.47
41947;BME280;27638;42.184;24.848;2023-03-19T01:09:27;100451.78;;;6.00;55.68
41947;BME280;27638;42.184;24.848;2023-03-19T01:11:53;100446.88;;;5.95;55.71
41947;BME280;27638;42.184;24.848;2023-03-19T01:14:18;100454.88;;;5.94;56.41
41947;BME280;27638;42.184;24.848;2023-03-19T01:16:43;100457.41;;;5.48;57.40
41947;BME280;27638;42.184;24.848;2023-03-19T01:19:09;100454.28;;;5.42;57.60
41947;BME280;27638;42.184;24.848;2023-03-19T01:21:34;100454.94;;;5.33;58.04
41947;BME280;27638;42.184;24.848;2023-03-19T01:24:01;100458.28;;;5.35;58.01
41947;BME280;27638;42.184;24.848;2023-03-19T01:26:26;100449.00;;;5.66;56.89
41947;BME280;27638;42.184;24.848;2023-03-19T01:28:52;100434.81;;;5.45;57.01
41947;BME280;27638;42.184;24.848;2023-03-19T01:31:17;100450.34;;;5.48;57.22
41947;BME280;27638;42.184;24.848;2023-03-19T01:33:43;100447.41;;;5.29;58.06
41947;BME280;27638;42.184;24.848;2023-03-19T01:36:09;100445.28;;;4.97;59.12
41947;BME280;27638;42.184;24.848;2023-03-19T01:38:35;100446.19;;;5.09;58.28
41947;BME280;27638;42.184;24.848;2023-03-19T01:41:01;100440.69;;;5.25;58.07
41947;BME280;27638;42.184;24.848;2023-03-19T01:43:28;100446.28;;;5.20;58.00
41947;BME280;27638;42.184;24.848;2023-03-19T01:46:29;100446.03;;;4.87;59.68
41947;BME280;27638;42.184;24.848;2023-03-19T01:49:00;100437.41;;;4.97;59.19
41947;BME280;27638;42.184;24.848;2023-03-19T01:51:29;100444.44;;;4.97;59.29
41947;BME280;27638;42.184;24.848;2023-03-19T01:54:02;100451.00;;;5.15;58.43
41947;BME280;27638;42.184;24.848;2023-03-19T01:56:32;100455.00;;;5.21;58.71
41947;BME280;27638;42.184;24.848;2023-03-19T01:59:03;100453.31;;;5.43;58.23
41947;BME280;27638;42.184;24.848;2023-03-19T02:01:32;100459.00;;;5.61;58.09
41947;BME280;27638;42.184;24.848;2023-03-19T02:04:01;100448.09;;;5.78;57.74
41947;BME280;27638;42.184;24.848;2023-03-19T02:06:28;100463.97;;;6.01;56.59
41947;BME280;27638;42.184;24.848;2023-03-19T02:08:55;100459.31;;;6.04;56.59
41947;BME280;27638;42.184;24.848;2023-03-19T02:11:21;100460.53;;;6.23;56.12
41947;BME280;27638;42.184;24.848;2023-03-19T02:13:47;100464.25;;;6.20;56.01
41947;BME280;27638;42.184;24.848;2023-03-19T02:16:13;100468.56;;;6.21;55.59
41947;BME280;27638;42.184;24.848;2023-03-19T02:18:40;100471.34;;;6.31;55.69
41947;BME280;27638;42.184;24.848;2023-03-19T02:21:12;100475.31;;;6.48;55.44
41947;BME280;27638;42.184;24.848;2023-03-19T02:23:56;100475.91;;;6.40;55.22
41947;BME280;27638;42.184;24.848;2023-03-19T02:26:28;100471.47;;;6.40;55.09
41947;BME280;27638;42.184;24.848;2023-03-19T02:28:54;100471.72;;;6.37;55.60
41947;BME280;27638;42.184;24.848;2023-03-19T02:31:19;100475.41;;;6.35;55.40
41947;BME280;27638;42.184;24.848;2023-03-19T02:36:47;100485.84;;;6.48;55.04
41947;BME280;27638;42.184;24.848;2023-03-19T02:39:20;100478.66;;;6.50;55.09
41947;BME280;27638;42.184;24.848;2023-03-19T02:41:47;100478.09;;;6.57;54.87
41947;BME280;27638;42.184;24.848;2023-03-19T02:44:13;100484.78;;;6.61;54.96
41947;BME280;27638;42.184;24.848;2023-03-19T02:46:38;100484.78;;;6.61;55.21
41947;BME280;27638;42.184;24.848;2023-03-19T02:49:04;100481.06;;;6.64;54.71
41947;BME280;27638;42.184;24.848;2023-03-19T02:51:30;100479.41;;;6.63;54.44
41947;BME280;27638;42.184;24.848;2023-03-19T02:53:55;100479.50;;;6.50;55.21
41947;BME280;27638;42.184;24.848;2023-03-19T02:56:21;100474.47;;;6.47;55.09
41947;BME280;27638;42.184;24.848;2023-03-19T02:58:46;100482.97;;;6.51;54.73
41947;BME280;27638;42.184;24.848;2023-03-19T03:01:12;100478.19;;;6.56;55.12
41947;BME280;27638;42.184;24.848;2023-03-19T03:03:37;100487.28;;;6.52;54.25
41947;BME280;27638;42.184;24.848;2023-03-19T03:06:03;100480.81;;;6.56;54.48
41947;BME280;27638;42.184;24.848;2023-03-19T03:08:29;100486.22;;;6.54;55.20
41947;BME280;27638;42.184;24.848;2023-03-19T03:10:54;100487.03;;;6.55;55.17
41947;BME280;27638;42.184;24.848;2023-03-19T03:13:20;100482.97;;;6.51;54.48
41947;BME280;27638;42.184;24.848;2023-03-19T03:15:45;100487.88;;;6.55;54.36
41947;BME280;27638;42.184;24.848;2023-03-19T03:18:10;100498.41;;;6.55;54.61
41947;BME280;27638;42.184;24.848;2023-03-19T03:20:36;100496.75;;;6.65;54.13
41947;BME280;27638;42.184;24.848;2023-03-19T03:23:01;100498.66;;;6.63;53.53
41947;BME280;27638;42.184;24.848;2023-03-19T03:25:27;100498.50;;;6.43;54.98
41947;BME280;27638;42.184;24.848;2023-03-19T03:27:52;100501.50;;;6.38;55.19
41947;BME280;27638;42.184;24.848;2023-03-19T03:30:18;100498.75;;;6.51;54.70
41947;BME280;27638;42.184;24.848;2023-03-19T03:32:44;100484.16;;;6.47;53.93
41947;BME280;27638;42.184;24.848;2023-03-19T03:35:10;100493.47;;;6.39;53.99
41947;BME280;27638;42.184;24.848;2023-03-19T03:37:35;100491.47;;;6.43;54.59
41947;BME280;27638;42.184;24.848;2023-03-19T03:40:03;100491.94;;;6.48;54.30
41947;BME280;27638;42.184;24.848;2023-03-19T03:42:32;100496.13;;;6.51;54.58
41947;BME280;27638;42.184;24.848;2023-03-19T03:44:58;100496.72;;;6.54;54.03
41947;BME280;27638;42.184;24.848;2023-03-19T03:47:23;100500.69;;;6.60;54.75
41947;BME280;27638;42.184;24.848;2023-03-19T03:49:49;100500.88;;;6.34;54.95
41947;BME280;27638;42.184;24.848;2023-03-19T03:52:14;100497.22;;;6.48;54.63
41947;BME280;27638;42.184;24.848;2023-03-19T03:54:40;100502.38;;;6.61;54.66
41947;BME280;27638;42.184;24.848;2023-03-19T03:57:06;100493.16;;;6.55;54.51
41947;BME280;27638;42.184;24.848;2023-03-19T03:59:32;100499.72;;;6.50;54.76
41947;BME280;27638;42.184;24.848;2023-03-19T04:01:57;100495.03;;;6.42;54.36
41947;BME280;27638;42.184;24.848;2023-03-19T04:04:23;100501.97;;;6.43;55.00
41947;BME280;27638;42.184;24.848;2023-03-19T04:06:48;100500.31;;;6.42;54.30
41947;BME280;27638;42.184;24.848;2023-03-19T04:09:14;100491.31;;;6.33;54.21
41947;BME280;27638;42.184;24.848;2023-03-19T04:11:41;100500.00;;;6.23;54.82
41947;BME280;27638;42.184;24.848;2023-03-19T04:14:06;100504.31;;;6.24;55.30
41947;BME280;27638;42.184;24.848;2023-03-19T04:16:32;100505.66;;;6.29;54.93
41947;BME280;27638;42.184;24.848;2023-03-19T04:18:58;100503.41;;;6.36;55.34
41947;BME280;27638;42.184;24.848;2023-03-19T04:21:23;100508.41;;;6.28;55.26
41947;BME280;27638;42.184;24.848;2023-03-19T04:23:50;100506.63;;;6.28;55.17
41947;BME280;27638;42.184;24.848;2023-03-19T04:26:15;100508.84;;;6.22;55.48
41947;BME280;27638;42.184;24.848;2023-03-19T04:28:41;100514.94;;;6.22;55.96
41947;BME280;27638;42.184;24.848;2023-03-19T04:31:07;100519.22;;;6.12;55.90
41947;BME280;27638;42.184;24.848;2023-03-19T04:33:33;100509.34;;;6.27;55.21
41947;BME280;27638;42.184;24.848;2023-03-19T04:36:00;100514.88;;;6.35;54.91
41947;BME280;27638;42.184;24.848;2023-03-19T04:38:26;100519.06;;;6.37;55.24
41947;BME280;27638;42.184;24.848;2023-03-19T04:40:52;100513.78;;;6.26;55.06
41947;BME280;27638;42.184;24.848;2023-03-19T04:43:17;100521.44;;;6.29;55.34
41947;BME280;27638;42.184;24.848;2023-03-19T04:45:43;100523.97;;;6.42;55.71
41947;BME280;27638;42.184;24.848;2023-03-19T04:48:08;100516.56;;;6.47;55.01
41947;BME280;27638;42.184;24.848;2023-03-19T04:50:34;100527.22;;;6.46;54.86
41947;BME280;27638;42.184;24.848;2023-03-19T04:52:59;100532.41;;;6.23;54.80
41947;BME280;27638;42.184;24.848;2023-03-19T04:55:25;100529.03;;;6.21;54.83
41947;BME280;27638;42.184;24.848;2023-03-19T04:57:51;100524.34;;;6.37;54.66
41947;BME280;27638;42.184;24.848;2023-03-19T05:00:16;100533.22;;;6.59;53.60
41947;BME280;27638;42.184;24.848;2023-03-19T05:02:42;100524.13;;;6.52;53.57
41947;BME280;27638;42.184;24.848;2023-03-19T05:05:08;100533.94;;;6.61;53.79
41947;BME280;27638;42.184;24.848;2023-03-19T05:07:36;100535.00;;;6.58;52.84
41947;BME280;27638;42.184;24.848;2023-03-19T05:10:02;100540.38;;;6.46;52.84
41947;BME280;27638;42.184;24.848;2023-03-19T05:12:28;100532.09;;;6.39;52.85
41947;BME280;27638;42.184;24.848;2023-03-19T05:14:53;100540.72;;;6.41;53.52
41947;BME280;27638;42.184;24.848;2023-03-19T05:17:18;100534.28;;;6.45;54.27
41947;BME280;27638;42.184;24.848;2023-03-19T05:19:44;100542.31;;;6.20;54.01
41947;BME280;27638;42.184;24.848;2023-03-19T05:22:09;100539.13;;;6.27;53.81
41947;BME280;27638;42.184;24.848;2023-03-19T05:24:35;100539.13;;;6.27;54.70
41947;BME280;27638;42.184;24.848;2023-03-19T05:27:01;100539.34;;;6.24;54.36
41947;BME280;27638;42.184;24.848;2023-03-19T05:29:27;100541.66;;;6.29;55.00
41947;BME280;27638;42.184;24.848;2023-03-19T05:31:52;100546.50;;;6.22;54.99
41947;BME280;27638;42.184;24.848;2023-03-19T05:34:18;100548.69;;;6.28;54.69
41947;BME280;27638;42.184;24.848;2023-03-19T05:36:43;100552.81;;;6.44;54.94
41947;BME280;27638;42.184;24.848;2023-03-19T05:39:09;100555.91;;;6.37;54.47
41947;BME280;27638;42.184;24.848;2023-03-19T05:41:34;100562.91;;;6.26;53.89
41947;BME280;27638;42.184;24.848;2023-03-19T05:44:00;100568.94;;;6.39;54.17
41947;BME280;27638;42.184;24.848;2023-03-19T05:46:25;100568.75;;;6.64;53.62
41947;BME280;27638;42.184;24.848;2023-03-19T05:48:51;100573.31;;;6.73;53.84
41947;BME280;27638;42.184;24.848;2023-03-19T05:51:17;100577.53;;;6.87;54.03
41947;BME280;27638;42.184;24.848;2023-03-19T05:53:42;100581.47;;;7.04;53.28
41947;BME280;27638;42.184;24.848;2023-03-19T05:56:08;100567.97;;;7.20;53.03
41947;BME280;27638;42.184;24.848;2023-03-19T05:58:33;100562.94;;;7.39;52.43
41947;BME280;27638;42.184;24.848;2023-03-19T06:00:59;100556.72;;;7.40;53.19
41947;BME280;27638;42.184;24.848;2023-03-19T06:03:24;100563.28;;;7.46;52.41
41947;BME280;27638;42.184;24.848;2023-03-19T06:05:51;100567.59;;;7.47;52.61
41947;BME280;27638;42.184;24.848;2023-03-19T06:08:17;100558.72;;;7.59;51.94
41947;BME280;27638;42.184;24.848;2023-03-19T06:10:43;100566.91;;;7.88;51.92
41947;BME280;27638;42.184;24.848;2023-03-19T06:13:08;100563.34;;;8.10;50.30
41947;BME280;27638;42.184;24.848;2023-03-19T06:15:34;100563.25;;;8.32;50.20
41947;BME280;27638;42.184;24.848;2023-03-19T06:18:00;100562.75;;;8.49;48.73
41947;BME280;27638;42.184;24.848;2023-03-19T06:20:25;100567.88;;;8.51;48.61
41947;BME280;27638;42.184;24.848;2023-03-19T06:22:51;100570.53;;;8.72;48.31
41947;BME280;27638;42.184;24.848;2023-03-19T06:25:17;100567.28;;;8.89;47.27
41947;BME280;27638;42.184;24.848;2023-03-19T06:27:42;100563.22;;;8.85;47.22
41947;BME280;27638;42.184;24.848;2023-03-19T06:30:08;100562.53;;;8.83;47.38
41947;BME280;27638;42.184;24.848;2023-03-19T06:32:34;100555.53;;;9.03;47.38
41947;BME280;27638;42.184;24.848;2023-03-19T06:35:00;100556.84;;;9.18;47.51
41947;BME280;27638;42.184;24.848;2023-03-19T06:37:26;100570.53;;;9.33;46.37
41947;BME280;27638;42.184;24.848;2023-03-19T06:39:52;100567.94;;;9.42;46.37
41947;BME280;27638;42.184;24.848;2023-03-19T06:42:19;100568.97;;;9.60;46.15
41947;BME280;27638;42.184;24.848;2023-03-19T06:44:46;100561.47;;;9.75;46.67
41947;BME280;27638;42.184;24.848;2023-03-19T06:47:11;100556.75;;;9.69;46.25
41947;BME280;27638;42.184;24.848;2023-03-19T06:49:37;100554.94;;;9.79;44.42
41947;BME280;27638;42.184;24.848;2023-03-19T06:52:02;100563.03;;;9.97;44.76
41947;BME280;27638;42.184;24.848;2023-03-19T06:54:28;100561.00;;;10.20;43.77
41947;BME280;27638;42.184;24.848;2023-03-19T06:56:53;100554.72;;;10.50;43.56
41947;BME280;27638;42.184;24.848;2023-03-19T06:59:19;100559.56;;;10.74;43.15
41947;BME280;27638;42.184;24.848;2023-03-19T07:01:44;100553.06;;;10.96;42.53
41947;BME280;27638;42.184;24.848;2023-03-19T07:04:10;100554.09;;;11.22;41.41
41947;BME280;27638;42.184;24.848;2023-03-19T07:06:36;100554.19;;;11.30;41.96
41947;BME280;27638;42.184;24.848;2023-03-19T07:09:02;100553.97;;;11.41;41.39
41947;BME280;27638;42.184;24.848;2023-03-19T07:11:28;100547.00;;;11.50;41.35
41947;BME280;27638;42.184;24.848;2023-03-19T07:13:54;100542.31;;;11.62;39.80
41947;BME280;27638;42.184;24.848;2023-03-19T07:16:19;100551.84;;;11.55;40.25
41947;BME280;27638;42.184;24.848;2023-03-19T07:18:45;100551.50;;;11.67;40.05
41947;BME280;27638;42.184;24.848;2023-03-19T07:21:10;100544.06;;;11.71;39.03
41947;BME280;27638;42.184;24.848;2023-03-19T07:23:36;100544.94;;;11.89;39.18
41947;BME280;27638;42.184;24.848;2023-03-19T07:26:01;100540.09;;;12.02;39.61
41947;BME280;27638;42.184;24.848;2023-03-19T07:28:27;100546.78;;;12.06;38.79
41947;BME280;27638;42.184;24.848;2023-03-19T07:30:53;100536.81;;;12.26;38.88
41947;BME280;27638;42.184;24.848;2023-03-19T07:33:19;100526.00;;;12.63;39.61
41947;BME280;27638;42.184;24.848;2023-03-19T07:35:46;100526.09;;;12.54;37.98
41947;BME280;27638;42.184;24.848;2023-03-19T07:38:11;100531.09;;;12.39;38.30
41947;BME280;27638;42.184;24.848;2023-03-19T07:40:36;100530.13;;;12.58;38.78
41947;BME280;27638;42.184;24.848;2023-03-19T07:43:02;100523.28;;;12.55;38.66
41947;BME280;27638;42.184;24.848;2023-03-19T07:45:28;100523.56;;;12.70;37.89
41947;BME280;27638;42.184;24.848;2023-03-19T07:47:53;100521.34;;;12.91;38.18
41947;BME280;27638;42.184;24.848;2023-03-19T07:50:19;100517.78;;;13.08;37.44
41947;BME280;27638;42.184;24.848;2023-03-19T07:52:45;100527.84;;;13.23;37.17
41947;BME280;27638;42.184;24.848;2023-03-19T07:55:12;100530.06;;;13.43;37.67
41947;BME280;27638;42.184;24.848;2023-03-19T07:57:38;100532.94;;;13.50;37.24
41947;BME280;27638;42.184;24.848;2023-03-19T08:00:04;100528.59;;;13.49;37.46
41947;BME280;27638;42.184;24.848;2023-03-19T08:02:30;100528.03;;;13.71;36.00
41947;BME280;27638;42.184;24.848;2023-03-19T08:04:55;100525.84;;;13.67;35.55
41947;BME280;27638;42.184;24.848;2023-03-19T08:07:21;100528.19;;;13.78;36.67
41947;BME280;27638;42.184;24.848;2023-03-19T08:09:47;100529.06;;;14.03;36.26
41947;BME280;27638;42.184;24.848;2023-03-19T08:12:12;100521.41;;;14.24;36.78
41947;BME280;27638;42.184;24.848;2023-03-19T08:14:38;100521.75;;;14.29;36.09
41947;BME280;27638;42.184;24.848;2023-03-19T08:17:03;100516.44;;;14.54;36.58
41947;BME280;27638;42.184;24.848;2023-03-19T08:19:29;100511.09;;;14.70;36.29
41947;BME280;27638;42.184;24.848;2023-03-19T08:21:54;100515.09;;;14.74;35.87
41947;BME280;27638;42.184;24.848;2023-03-19T08:24:20;100507.88;;;14.91;35.26
41947;BME280;27638;42.184;24.848;2023-03-19T08:26:46;100507.25;;;14.73;35.73
41947;BME280;27638;42.184;24.848;2023-03-19T08:29:11;100504.69;;;14.95;34.88
41947;BME280;27638;42.184;24.848;2023-03-19T08:31:37;100494.66;;;15.06;34.49
41947;BME280;27638;42.184;24.848;2023-03-19T08:34:02;100489.19;;;14.99;32.91
41947;BME280;27638;42.184;24.848;2023-03-19T08:36:29;100493.81;;;15.05;33.47
41947;BME280;27638;42.184;24.848;2023-03-19T08:38:55;100486.47;;;15.07;33.35
41947;BME280;27638;42.184;24.848;2023-03-19T08:41:21;100480.97;;;15.09;32.66
41947;BME280;27638;42.184;24.848;2023-03-19T08:43:46;100483.78;;;15.15;32.61
41947;BME280;27638;42.184;24.848;2023-03-19T08:46:12;100480.09;;;15.16;33.67
41947;BME280;27638;42.184;24.848;2023-03-19T08:48:38;100479.53;;;15.29;33.19
41947;BME280;27638;42.184;24.848;2023-03-19T08:51:03;100473.03;;;15.31;33.33
41947;BME280;27638;42.184;24.848;2023-03-19T08:53:31;100476.97;;;15.44;32.85
41947;BME280;27638;42.184;24.848;2023-03-19T08:56:02;100480.56;;;15.59;32.51
41947;BME280;27638;42.184;24.848;2023-03-19T08:58:29;100475.56;;;15.64;33.39
41947;BME280;27638;42.184;24.848;2023-03-19T09:01:12;100475.91;;;15.61;32.46
41947;BME280;27638;42.184;24.848;2023-03-19T09:03:39;100462.63;;;15.76;32.15
41947;BME280;27638;42.184;24.848;2023-03-19T09:06:07;100457.75;;;15.79;33.37
41947;BME280;27638;42.184;24.848;2023-03-19T09:08:33;100462.09;;;15.49;33.27
41947;BME280;27638;42.184;24.848;2023-03-19T09:10:59;100456.22;;;15.54;32.43
41947;BME280;27638;42.184;24.848;2023-03-19T09:13:24;100453.19;;;15.65;32.97
41947;BME280;27638;42.184;24.848;2023-03-19T09:15:50;100453.31;;;15.72;33.37
41947;BME280;27638;42.184;24.848;2023-03-19T09:18:16;100453.44;;;15.78;32.56
41947;BME280;27638;42.184;24.848;2023-03-19T09:20:42;100443.69;;;15.85;32.90
41947;BME280;27638;42.184;24.848;2023-03-19T09:23:08;100448.56;;;15.82;33.27
41947;BME280;27638;42.184;24.848;2023-03-19T09:25:33;100445.28;;;15.94;33.11
41947;BME280;27638;42.184;24.848;2023-03-19T09:27:59;100439.59;;;15.98;33.02
41947;BME280;27638;42.184;24.848;2023-03-19T09:30:25;100435.44;;;15.95;32.45
41947;BME280;27638;42.184;24.848;2023-03-19T09:32:51;100435.25;;;15.96;33.82
41947;BME280;27638;42.184;24.848;2023-03-19T09:35:16;100426.50;;;15.88;32.68
41947;BME280;27638;42.184;24.848;2023-03-19T09:37:42;100431.41;;;15.76;33.01
41947;BME280;27638;42.184;24.848;2023-03-19T09:40:25;100421.97;;;15.88;32.69
41947;BME280;27638;42.184;24.848;2023-03-19T09:46:17;100414.50;;;15.84;33.18
41947;BME280;27638;42.184;24.848;2023-03-19T09:48:54;100414.50;;;15.84;33.99
41947;BME280;27638;42.184;24.848;2023-03-19T09:51:48;100410.13;;;15.68;33.93
41947;BME280;27638;42.184;24.848;2023-03-19T09:54:43;100406.66;;;15.59;34.68
41947;BME280;27638;42.184;24.848;2023-03-19T09:57:10;100398.69;;;15.51;35.17
41947;BME280;27638;42.184;24.848;2023-03-19T09:59:37;100407.34;;;15.61;36.20
41947;BME280;27638;42.184;24.848;2023-03-19T10:04:54;100400.56;;;15.74;36.17
41947;BME280;27638;42.184;24.848;2023-03-19T10:15:39;100387.59;;;15.71;36.20
41947;BME280;27638;42.184;24.848;2023-03-19T10:18:16;100377.91;;;15.70;35.75
41947;BME280;27638;42.184;24.848;2023-03-19T10:26:11;100365.56;;;15.15;36.20
41947;BME280;27638;42.184;24.848;2023-03-19T10:28:38;100360.28;;;15.07;36.63
41947;BME280;27638;42.184;24.848;2023-03-19T10:31:10;100350.94;;;15.11;37.87
41947;BME280;27638;42.184;24.848;2023-03-19T10:36:34;100333.91;;;15.34;36.16
41947;BME280;27638;42.184;24.848;2023-03-19T10:39:00;100333.28;;;15.32;36.69
41947;BME280;27638;42.184;24.848;2023-03-19T10:44:26;100327.03;;;15.17;36.64
41947;BME280;27638;42.184;24.848;2023-03-19T10:46:56;100312.75;;;15.33;37.46
41947;BME280;27638;42.184;24.848;2023-03-19T10:49:22;100313.13;;;15.30;37.82
41947;BME280;27638;42.184;24.848;2023-03-19T10:51:47;100306.13;;;15.29;38.31
41947;BME280;27638;42.184;24.848;2023-03-19T10:54:25;100295.34;;;15.22;38.14
41947;BME280;27638;42.184;24.848;2023-03-19T10:56:54;100295.75;;;15.34;37.75
41947;BME280;27638;42.184;24.848;2023-03-19T10:59:38;100295.34;;;15.22;37.35
41947;BME280;27638;42.184;24.848;2023-03-19T11:02:22;100286.69;;;15.20;38.60
41947;BME280;27638;42.184;24.848;2023-03-19T11:04:49;100282.09;;;15.29;37.85
41947;BME280;27638;42.184;24.848;2023-03-19T11:07:31;100283.13;;;15.28;38.74
41947;BME280;27638;42.184;24.848;2023-03-19T11:09:57;100278.00;;;15.41;38.20
41947;BME280;27638;42.184;24.848;2023-03-19T11:14:56;100274.25;;;15.50;37.66
41947;BME280;27638;42.184;24.848;2023-03-19T11:18:06;100265.22;;;15.51;37.55
41947;BME280;27638;42.184;24.848;2023-03-19T11:20:22;100255.19;;;15.53;37.40
41947;BME280;27638;42.184;24.848;2023-03-19T11:22:52;100252.84;;;15.58;37.77
41947;BME280;27638;42.184;24.848;2023-03-19T11:25:25;100255.00;;;15.63;37.85
41947;BME280;27638;42.184;24.848;2023-03-19T11:28:08;100257.94;;;15.68;38.83
41947;BME280;27638;42.184;24.848;2023-03-19T11:44:21;100224.81;;;16.07;39.56
41947;BME280;27638;42.184;24.848;2023-03-19T11:47:12;100214.00;;;16.15;39.40
41947;BME280;27638;42.184;24.848;2023-03-19T11:49:50;100212.81;;;16.17;37.85
41947;BME280;27638;42.184;24.848;2023-03-19T11:52:28;100221.72;;;16.24;38.19
41947;BME280;27638;42.184;24.848;2023-03-19T12:08:14;100206.94;;;15.92;39.08
41947;BME280;27638;42.184;24.848;2023-03-19T12:16:58;100200.41;;;15.80;39.67
41947;BME280;27638;42.184;24.848;2023-03-19T12:19:44;100198.28;;;15.90;38.25
41947;BME280;27638;42.184;24.848;2023-03-19T12:30:48;100192.56;;;15.93;38.05
41947;BME280;27638;42.184;24.848;2023-03-19T12:36:09;100177.28;;;16.02;38.49
41947;BME280;27638;42.184;24.848;2023-03-19T12:38:40;100170.91;;;16.03;38.96
41947;BME280;27638;42.184;24.848;2023-03-19T12:41:10;100165.03;;;16.08;38.19
41947;BME280;27638;42.184;24.848;2023-03-19T12:46:51;100166.00;;;16.21;38.90
41947;BME280;27638;42.184;24.848;2023-03-19T12:51:55;100167.72;;;16.29;37.67
41947;BME280;27638;42.184;24.848;2023-03-19T12:54:30;100158.06;;;16.28;37.96
41947;BME280;27638;42.184;24.848;2023-03-19T12:57:05;100157.88;;;16.29;38.97
41947;BME280;27638;42.184;24.848;2023-03-19T12:59:42;100160.81;;;16.35;38.97
41947;BME280;27638;42.184;24.848;2023-03-19T13:02:32;100144.31;;;16.31;38.21
41947;BME280;27638;42.184;24.848;2023-03-19T13:05:08;100142.09;;;16.35;37.97
41947;BME280;27638;42.184;24.848;2023-03-19T13:07:52;100143.75;;;16.36;38.29
41947;BME280;27638;42.184;24.848;2023-03-19T13:10:22;100137.84;;;16.40;38.32
41947;BME280;27638;42.184;24.848;2023-03-19T13:12:49;100138.28;;;16.44;37.61
41947;BME280;27638;42.184;24.848;2023-03-19T13:15:36;100140.56;;;16.47;37.94
41947;BME280;27638;42.184;24.848;2023-03-19T13:21:23;100131.47;;;16.41;38.94
41947;BME280;27638;42.184;24.848;2023-03-19T13:24:06;100126.38;;;16.25;38.29
41947;BME280;27638;42.184;24.848;2023-03-19T13:26:37;100128.34;;;16.38;38.36
41947;BME280;27638;42.184;24.848;2023-03-19T13:29:30;100115.19;;;16.36;38.36
41947;BME280;27638;42.184;24.848;2023-03-19T13:32:23;100111.75;;;16.42;37.70
41947;BME280;27638;42.184;24.848;2023-03-19T13:34:49;100100.94;;;16.50;36.92
41947;BME280;27638;42.184;24.848;2023-03-19T13:37:19;100093.28;;;16.47;38.35
41947;BME280;27638;42.184;24.848;2023-03-19T13:39:46;100099.03;;;16.44;37.26
41947;BME280;27638;42.184;24.848;2023-03-19T13:44:55;100081.34;;;16.65;38.54
41947;BME280;27638;42.184;24.848;2023-03-19T13:52:52;100073.47;;;16.63;36.72
41947;BME280;27638;42.184;24.848;2023-03-19T13:58:22;100060.81;;;16.65;39.08
41947;BME280;27638;42.184;24.848;2023-03-19T14:01:11;100068.63;;;16.67;38.62
41947;BME280;27638;42.184;24.848;2023-03-19T14:04:30;100071.13;;;16.68;37.06
41947;BME280;27638;42.184;24.848;2023-03-19T14:07:15;100071.13;;;16.68;37.52
41947;BME280;27638;42.184;24.848;2023-03-19T14:09:45;100069.50;;;16.74;37.11
41947;BME280;27638;42.184;24.848;2023-03-19T14:19:52;100051.88;;;16.79;37.36
41947;BME280;27638;42.184;24.848;2023-03-19T14:27:30;100045.69;;;16.79;37.14
41947;BME280;27638;42.184;24.848;2023-03-19T14:30:00;100043.00;;;16.79;36.45
41947;BME280;27638;42.184;24.848;2023-03-19T14:32:36;100042.56;;;16.75;37.03
41947;BME280;27638;42.184;24.848;2023-03-19T14:35:05;100040.78;;;16.82;38.44
41947;BME280;27638;42.184;24.848;2023-03-19T14:37:41;100041.16;;;16.79;36.68
41947;BME280;27638;42.184;24.848;2023-03-19T14:40:43;100041.78;;;16.81;37.07